sensor_id;sensor_type;location;lat;lon;timestamp;temperature;humidity
27801;DHT22;15181;49.112;11.930;2022-10-01T00:00:55;8.60;99.90
27801;DHT22;15181;49.112;11.930;2022-10-01T00:03:24;8.60;99.90
27801;DHT22;15181;49.112;11.930;2022-10-01T00:05:58;8.50;99.90
27801;DHT22;15181;49.112;11.930;2022-10-01T00:08:25;8.40;99.90
27801;DHT22;15181;49.112;11.930;2022-10-01T00:10:53;8.30;99.90
27801;DHT22;15181;49.112;11.930;2022-10-01T00:13:21;8.30;99.90
27801;DHT22;15181;49.112;11.930;2022-10-01T00:15:48;8.20;99.90
27801;DHT22;15181;49.112;11.930;2022-10-01T00:18:15;8.30;99.90
27801;DHT22;15181;49.112;11.930;2022-10-01T00:20:42;8.30;99.90
27801;DHT22;15181;49.112;11.930;2022-10-01T00:23:09;8.30;99.90
27801;DHT22;15181;49.112;11.930;2022-10-01T00:25:36;8.20;99.90
27801;DHT22;15181;49.112;11.930;2022-10-01T00:28:03;8.20;99.90
27801;DHT22;15181;49.112;11.930;2022-10-01T00:30:31;8.20;99.90
27801;DHT22;15181;49.112;11.930;2022-10-01T00:32:58;8.20;99.90
27801;DHT22;15181;49.112;11.930;2022-10-01T00:35:25;8.30;99.90
27801;DHT22;15181;49.112;11.930;2022-10-01T00:37:52;8.30;99.90
27801;DHT22;15181;49.112;11.930;2022-10-01T00:40:20;8.20;99.90
27801;DHT22;15181;49.112;11.930;2022-10-01T00:42:48;8.20;99.90
27801;DHT22;15181;49.112;11.930;2022-10-01T00:45:15;8.10;99.90
27801;DHT22;15181;49.112;11.930;2022-10-01T00:47:46;8.10;99.90
27801;DHT22;15181;49.112;11.930;2022-10-01T00:50:19;8.10;99.90
27801;DHT22;15181;49.112;11.930;2022-10-01T00:52:50;8.10;99.90
27801;DHT22;15181;49.112;11.930;2022-10-01T00:55:20;8.10;99.90
27801;DHT22;15181;49.112;11.930;2022-10-01T00:57:48;8.10;99.90
27801;DHT22;15181;49.112;11.930;2022-10-01T01:00:16;8.20;99.90
27801;DHT22;15181;49.112;11.930;2022-10-01T01:02:44;8.20;99.90
27801;DHT22;15181;49.112;11.930;2022-10-01T01:05:11;8.10;99.90
27801;DHT22;15181;49.112;11.930;2022-10-01T01:07:41;8.10;99.90
27801;DHT22;15181;49.112;11.930;2022-10-01T01:10:10;8.10;99.90
27801;DHT22;15181;49.112;11.930;2022-10-01T01:12:46;8.10;99.90
27801;DHT22;15181;49.112;11.930;2022-10-01T01:15:19;8.10;99.90
27801;DHT22;15181;49.112;11.930;2022-10-01T01:17:52;8.10;99.90
27801;DHT22;15181;49.112;11.930;2022-10-01T01:20:50;8.10;99.90
27801;DHT22;15181;49.112;11.930;2022-10-01T01:23:39;8.00;99.90
27801;DHT22;15181;49.112;11.930;2022-10-01T01:26:17;8.00;99.90
27801;DHT22;15181;49.112;11.930;2022-10-01T01:28:54;8.00;99.90
27801;DHT22;15181;49.112;11.930;2022-10-01T01:31:24;8.00;99.90
27801;DHT22;15181;49.112;11.930;2022-10-01T01:33:55;8.10;99.90
27801;DHT22;15181;49.112;11.930;2022-10-01T01:36:26;8.10;99.90
27801;DHT22;15181;49.112;11.930;2022-10-01T01:38:58;8.10;99.90
27801;DHT22;15181;49.112;11.930;2022-10-01T01:41:28;8.10;99.90
27801;DHT22;15181;49.112;11.930;2022-10-01T01:44:00;8.10;99.90
27801;DHT22;15181;49.112;11.930;2022-10-01T01:46:29;8.10;99.90
27801;DHT22;15181;49.112;11.930;2022-10-01T01:48:59;8.20;99.90
27801;DHT22;15181;49.112;11.930;2022-10-01T01:51:31;8.20;99.90
27801;DHT22;15181;49.112;11.930;2022-10-01T01:53:59;8.20;99.90
27801;DHT22;15181;49.112;11.930;2022-10-01T01:56:26;8.20;99.90
27801;DHT22;15181;49.112;11.930;2022-10-01T01:58:53;8.10;99.90
27801;DHT22;15181;49.112;11.930;2022-10-01T02:01:34;8.00;99.90
27801;DHT22;15181;49.112;11.930;2022-10-01T02:04:05;7.90;99.90
27801;DHT22;15181;49.112;11.930;2022-10-01T02:06:43;7.90;99.90
27801;DHT22;15181;49.112;11.930;2022-10-01T02:09:20;8.00;99.90
27801;DHT22;15181;49.112;11.930;2022-10-01T02:11:59;8.00;99.90
27801;DHT22;15181;49.112;11.930;2022-10-01T02:14:36;8.00;99.90
27801;DHT22;15181;49.112;11.930;2022-10-01T02:17:09;8.00;99.90
27801;DHT22;15181;49.112;11.930;2022-10-01T02:19:44;8.00;99.90
27801;DHT22;15181;49.112;11.930;2022-10-01T02:22:17;8.00;99.90
27801;DHT22;15181;49.112;11.930;2022-10-01T02:24:51;8.00;99.90
27801;DHT22;15181;49.112;11.930;2022-10-01T02:27:26;8.00;99.90
27801;DHT22;15181;49.112;11.930;2022-10-01T02:29:57;7.80;99.90
27801;DHT22;15181;49.112;11.930;2022-10-01T02:32:27;7.70;99.90
27801;DHT22;15181;49.112;11.930;2022-10-01T02:34:56;7.60;99.90
27801;DHT22;15181;49.112;11.930;2022-10-01T02:37:26;7.50;99.90
27801;DHT22;15181;49.112;11.930;2022-10-01T02:39:54;7.40;99.90
27801;DHT22;15181;49.112;11.930;2022-10-01T02:42:24;7.30;99.90
27801;DHT22;15181;49.112;11.930;2022-10-01T02:44:53;7.30;99.90
27801;DHT22;15181;49.112;11.930;2022-10-01T02:47:24;7.30;99.90
27801;DHT22;15181;49.112;11.930;2022-10-01T02:49:53;7.40;99.90
27801;DHT22;15181;49.112;11.930;2022-10-01T02:52:26;7.40;99.90
27801;DHT22;15181;49.112;11.930;2022-10-01T02:54:57;7.40;99.90
27801;DHT22;15181;49.112;11.930;2022-10-01T02:57:26;7.40;99.90
27801;DHT22;15181;49.112;11.930;2022-10-01T02:59:54;7.30;99.90
27801;DHT22;15181;49.112;11.930;2022-10-01T03:02:22;7.30;99.90
27801;DHT22;15181;49.112;11.930;2022-10-01T03:04:52;7.30;99.90
27801;DHT22;15181;49.112;11.930;2022-10-01T03:07:20;7.30;99.90
27801;DHT22;15181;49.112;11.930;2022-10-01T03:09:48;7.30;99.90
27801;DHT22;15181;49.112;11.930;2022-10-01T03:12:15;7.30;99.90
27801;DHT22;15181;49.112;11.930;2022-10-01T03:14:43;7.30;99.90
27801;DHT22;15181;49.112;11.930;2022-10-01T03:17:10;7.30;99.90
27801;DHT22;15181;49.112;11.930;2022-10-01T03:19:37;7.30;99.90
27801;DHT22;15181;49.112;11.930;2022-10-01T03:22:06;7.20;99.90
27801;DHT22;15181;49.112;11.930;2022-10-01T03:24:33;7.00;99.90
27801;DHT22;15181;49.112;11.930;2022-10-01T03:27:00;7.00;99.90
27801;DHT22;15181;49.112;11.930;2022-10-01T03:29:27;7.00;99.90
27801;DHT22;15181;49.112;11.930;2022-10-01T03:31:54;6.90;99.90
27801;DHT22;15181;49.112;11.930;2022-10-01T03:34:21;6.80;99.90
27801;DHT22;15181;49.112;11.930;2022-10-01T03:36:49;6.70;99.90
27801;DHT22;15181;49.112;11.930;2022-10-01T03:39:18;6.70;99.90
27801;DHT22;15181;49.112;11.930;2022-10-01T03:41:45;6.80;99.90
27801;DHT22;15181;49.112;11.930;2022-10-01T03:44:12;6.90;99.90
27801;DHT22;15181;49.112;11.930;2022-10-01T03:46:38;6.90;99.90
27801;DHT22;15181;49.112;11.930;2022-10-01T03:49:05;6.90;99.90
27801;DHT22;15181;49.112;11.930;2022-10-01T03:51:32;7.00;99.90
27801;DHT22;15181;49.112;11.930;2022-10-01T03:54:02;7.10;99.90
27801;DHT22;15181;49.112;11.930;2022-10-01T03:56:31;7.10;99.90
27801;DHT22;15181;49.112;11.930;2022-10-01T03:58:58;7.10;99.90
27801;DHT22;15181;49.112;11.930;2022-10-01T04:01:25;7.00;99.90
27801;DHT22;15181;49.112;11.930;2022-10-01T04:03:52;7.10;99.90
27801;DHT22;15181;49.112;11.930;2022-10-01T04:06:19;7.10;99.90
27801;DHT22;15181;49.112;11.930;2022-10-01T04:08:46;7.00;99.90
27801;DHT22;15181;49.112;11.930;2022-10-01T04:11:13;6.80;99.90
27801;DHT22;15181;49.112;11.930;2022-10-01T04:13:41;6.80;99.90
27801;DHT22;15181;49.112;11.930;2022-10-01T04:16:08;6.80;99.90
27801;DHT22;15181;49.112;11.930;2022-10-01T04:18:35;6.60;99.90
27801;DHT22;15181;49.112;11.930;2022-10-01T04:21:02;6.60;99.90
27801;DHT22;15181;49.112;11.930;2022-10-01T04:23:29;6.60;99.90
27801;DHT22;15181;49.112;11.930;2022-10-01T04:25:58;6.60;99.90
27801;DHT22;15181;49.112;11.930;2022-10-01T04:28:27;6.60;99.90
27801;DHT22;15181;49.112;11.930;2022-10-01T04:30:55;6.50;99.90
27801;DHT22;15181;49.112;11.930;2022-10-01T04:33:36;6.50;99.90
27801;DHT22;15181;49.112;11.930;2022-10-01T04:36:03;6.50;99.90
27801;DHT22;15181;49.112;11.930;2022-10-01T04:38:30;6.50;99.90
27801;DHT22;15181;49.112;11.930;2022-10-01T04:40:57;6.30;99.90
27801;DHT22;15181;49.112;11.930;2022-10-01T04:43:23;6.20;99.90
27801;DHT22;15181;49.112;11.930;2022-10-01T04:45:52;6.20;99.90
27801;DHT22;15181;49.112;11.930;2022-10-01T04:48:20;6.30;99.90
27801;DHT22;15181;49.112;11.930;2022-10-01T04:50:47;6.30;99.90
27801;DHT22;15181;49.112;11.930;2022-10-01T04:53:14;6.30;99.90
27801;DHT22;15181;49.112;11.930;2022-10-01T04:55:41;6.30;99.90
27801;DHT22;15181;49.112;11.930;2022-10-01T04:58:08;6.30;99.90
27801;DHT22;15181;49.112;11.930;2022-10-01T05:00:35;6.30;99.90
27801;DHT22;15181;49.112;11.930;2022-10-01T05:03:02;6.30;99.90
27801;DHT22;15181;49.112;11.930;2022-10-01T05:05:30;6.20;99.90
27801;DHT22;15181;49.112;11.930;2022-10-01T05:07:59;6.30;99.90
27801;DHT22;15181;49.112;11.930;2022-10-01T05:10:26;6.30;99.90
27801;DHT22;15181;49.112;11.930;2022-10-01T05:12:53;6.30;99.90
27801;DHT22;15181;49.112;11.930;2022-10-01T05:15:20;6.40;99.90
27801;DHT22;15181;49.112;11.930;2022-10-01T05:17:47;6.50;99.90
27801;DHT22;15181;49.112;11.930;2022-10-01T05:20:15;6.60;99.90
27801;DHT22;15181;49.112;11.930;2022-10-01T05:22:44;6.60;99.90
27801;DHT22;15181;49.112;11.930;2022-10-01T05:25:12;6.50;99.90
27801;DHT22;15181;49.112;11.930;2022-10-01T05:27:39;6.50;99.90
27801;DHT22;15181;49.112;11.930;2022-10-01T05:30:07;6.50;99.90
27801;DHT22;15181;49.112;11.930;2022-10-01T05:32:35;6.60;99.90
27801;DHT22;15181;49.112;11.930;2022-10-01T05:35:02;6.60;99.90
27801;DHT22;15181;49.112;11.930;2022-10-01T05:37:29;6.60;99.90
27801;DHT22;15181;49.112;11.930;2022-10-01T05:39:57;6.70;99.90
27801;DHT22;15181;49.112;11.930;2022-10-01T05:42:24;6.70;99.90
27801;DHT22;15181;49.112;11.930;2022-10-01T05:44:51;6.80;99.90
27801;DHT22;15181;49.112;11.930;2022-10-01T05:47:18;7.00;99.90
27801;DHT22;15181;49.112;11.930;2022-10-01T05:49:45;7.00;99.90
27801;DHT22;15181;49.112;11.930;2022-10-01T05:52:15;7.20;99.90
27801;DHT22;15181;49.112;11.930;2022-10-01T05:54:41;7.30;99.90
27801;DHT22;15181;49.112;11.930;2022-10-01T05:57:10;7.30;99.90
27801;DHT22;15181;49.112;11.930;2022-10-01T05:59:37;7.40;99.90
27801;DHT22;15181;49.112;11.930;2022-10-01T06:02:04;7.50;99.90
27801;DHT22;15181;49.112;11.930;2022-10-01T06:04:31;7.60;99.90
27801;DHT22;15181;49.112;11.930;2022-10-01T06:06:58;7.70;99.90
27801;DHT22;15181;49.112;11.930;2022-10-01T06:09:25;7.70;99.90
27801;DHT22;15181;49.112;11.930;2022-10-01T06:11:52;7.80;99.90
27801;DHT22;15181;49.112;11.930;2022-10-01T06:14:21;7.80;99.90
27801;DHT22;15181;49.112;11.930;2022-10-01T06:16:52;7.90;99.90
27801;DHT22;15181;49.112;11.930;2022-10-01T06:19:19;7.90;99.90
27801;DHT22;15181;49.112;11.930;2022-10-01T06:21:46;8.00;99.90
27801;DHT22;15181;49.112;11.930;2022-10-01T06:24:13;8.00;99.90
27801;DHT22;15181;49.112;11.930;2022-10-01T06:26:40;8.00;99.90
27801;DHT22;15181;49.112;11.930;2022-10-01T06:29:07;8.10;99.90
27801;DHT22;15181;49.112;11.930;2022-10-01T06:31:35;8.10;99.90
27801;DHT22;15181;49.112;11.930;2022-10-01T06:34:02;8.20;99.90
27801;DHT22;15181;49.112;11.930;2022-10-01T06:36:29;8.20;99.90
27801;DHT22;15181;49.112;11.930;2022-10-01T06:38:56;8.30;99.90
27801;DHT22;15181;49.112;11.930;2022-10-01T06:41:23;8.30;99.90
27801;DHT22;15181;49.112;11.930;2022-10-01T06:43:50;8.40;99.90
27801;DHT22;15181;49.112;11.930;2022-10-01T06:46:17;8.40;99.90
27801;DHT22;15181;49.112;11.930;2022-10-01T06:48:45;8.50;99.90
27801;DHT22;15181;49.112;11.930;2022-10-01T06:51:12;8.60;99.90
27801;DHT22;15181;49.112;11.930;2022-10-01T06:53:39;8.60;99.90
27801;DHT22;15181;49.112;11.930;2022-10-01T06:56:06;8.60;99.90
27801;DHT22;15181;49.112;11.930;2022-10-01T06:58:33;8.70;99.90
27801;DHT22;15181;49.112;11.930;2022-10-01T07:01:02;8.80;99.90
27801;DHT22;15181;49.112;11.930;2022-10-01T07:03:29;8.80;99.90
27801;DHT22;15181;49.112;11.930;2022-10-01T07:06:02;8.80;99.90
27801;DHT22;15181;49.112;11.930;2022-10-01T07:08:29;8.90;99.90
27801;DHT22;15181;49.112;11.930;2022-10-01T07:11:01;9.00;99.90
27801;DHT22;15181;49.112;11.930;2022-10-01T07:13:28;9.10;99.90
27801;DHT22;15181;49.112;11.930;2022-10-01T07:15:55;9.10;99.90
27801;DHT22;15181;49.112;11.930;2022-10-01T07:18:22;9.10;99.90
27801;DHT22;15181;49.112;11.930;2022-10-01T07:20:49;9.20;99.90
27801;DHT22;15181;49.112;11.930;2022-10-01T07:23:17;9.20;99.90
27801;DHT22;15181;49.112;11.930;2022-10-01T07:25:45;9.30;99.90
27801;DHT22;15181;49.112;11.930;2022-10-01T07:28:14;9.30;99.90
27801;DHT22;15181;49.112;11.930;2022-10-01T07:30:43;9.30;99.90
27801;DHT22;15181;49.112;11.930;2022-10-01T07:33:12;9.40;99.90
27801;DHT22;15181;49.112;11.930;2022-10-01T07:35:39;9.40;99.90
27801;DHT22;15181;49.112;11.930;2022-10-01T07:38:05;9.50;99.90
27801;DHT22;15181;49.112;11.930;2022-10-01T07:40:34;9.60;99.90
27801;DHT22;15181;49.112;11.930;2022-10-01T07:43:01;9.70;99.90
27801;DHT22;15181;49.112;11.930;2022-10-01T07:45:27;9.80;99.90
27801;DHT22;15181;49.112;11.930;2022-10-01T07:47:56;9.90;99.90
27801;DHT22;15181;49.112;11.930;2022-10-01T07:50:24;10.00;99.90
27801;DHT22;15181;49.112;11.930;2022-10-01T07:52:51;10.10;99.90
27801;DHT22;15181;49.112;11.930;2022-10-01T07:55:19;10.20;99.90
27801;DHT22;15181;49.112;11.930;2022-10-01T07:57:51;10.30;99.90
27801;DHT22;15181;49.112;11.930;2022-10-01T08:00:18;10.40;99.90
27801;DHT22;15181;49.112;11.930;2022-10-01T08:02:48;10.60;99.90
27801;DHT22;15181;49.112;11.930;2022-10-01T08:05:16;10.60;99.90
27801;DHT22;15181;49.112;11.930;2022-10-01T08:07:42;10.70;99.90
27801;DHT22;15181;49.112;11.930;2022-10-01T08:10:09;10.80;99.90
27801;DHT22;15181;49.112;11.930;2022-10-01T08:12:36;10.80;99.90
27801;DHT22;15181;49.112;11.930;2022-10-01T08:15:05;10.90;99.90
27801;DHT22;15181;49.112;11.930;2022-10-01T08:17:34;10.90;99.90
27801;DHT22;15181;49.112;11.930;2022-10-01T08:20:02;11.00;99.90
27801;DHT22;15181;49.112;11.930;2022-10-01T08:22:29;11.00;99.90
27801;DHT22;15181;49.112;11.930;2022-10-01T08:24:56;11.00;99.90
27801;DHT22;15181;49.112;11.930;2022-10-01T08:27:23;11.10;99.90
27801;DHT22;15181;49.112;11.930;2022-10-01T08:29:50;11.10;99.90
27801;DHT22;15181;49.112;11.930;2022-10-01T08:32:19;11.10;99.90
27801;DHT22;15181;49.112;11.930;2022-10-01T08:34:46;11.10;99.90
27801;DHT22;15181;49.112;11.930;2022-10-01T08:37:14;11.10;99.90
27801;DHT22;15181;49.112;11.930;2022-10-01T08:39:41;11.10;99.90
27801;DHT22;15181;49.112;11.930;2022-10-01T08:42:14;11.10;99.90
27801;DHT22;15181;49.112;11.930;2022-10-01T08:44:47;11.10;99.90
27801;DHT22;15181;49.112;11.930;2022-10-01T08:47:17;11.20;99.90
27801;DHT22;15181;49.112;11.930;2022-10-01T08:49:52;11.20;99.90
27801;DHT22;15181;49.112;11.930;2022-10-01T08:52:22;11.20;99.90
27801;DHT22;15181;49.112;11.930;2022-10-01T08:54:53;11.20;99.90
27801;DHT22;15181;49.112;11.930;2022-10-01T08:57:23;11.20;99.90
27801;DHT22;15181;49.112;11.930;2022-10-01T08:59:53;11.30;99.90
27801;DHT22;15181;49.112;11.930;2022-10-01T09:02:23;11.20;99.90
27801;DHT22;15181;49.112;11.930;2022-10-01T09:04:54;11.30;99.90
27801;DHT22;15181;49.112;11.930;2022-10-01T09:07:32;11.30;99.90
27801;DHT22;15181;49.112;11.930;2022-10-01T09:10:08;11.30;99.90
27801;DHT22;15181;49.112;11.930;2022-10-01T09:12:49;11.30;99.90
27801;DHT22;15181;49.112;11.930;2022-10-01T09:15:23;11.30;99.90
27801;DHT22;15181;49.112;11.930;2022-10-01T09:18:00;11.20;99.90
27801;DHT22;15181;49.112;11.930;2022-10-01T09:20:35;11.30;99.90
27801;DHT22;15181;49.112;11.930;2022-10-01T09:23:17;11.20;99.90
27801;DHT22;15181;49.112;11.930;2022-10-01T09:25:45;11.30;99.90
27801;DHT22;15181;49.112;11.930;2022-10-01T09:28:18;11.30;99.90
27801;DHT22;15181;49.112;11.930;2022-10-01T09:30:51;11.30;99.90
27801;DHT22;15181;49.112;11.930;2022-10-01T09:33:22;11.40;99.90
27801;DHT22;15181;49.112;11.930;2022-10-01T09:35:55;11.40;99.90
27801;DHT22;15181;49.112;11.930;2022-10-01T09:38:35;11.40;99.90
27801;DHT22;15181;49.112;11.930;2022-10-01T09:41:04;11.40;99.90
27801;DHT22;15181;49.112;11.930;2022-10-01T09:43:34;11.50;99.90
27801;DHT22;15181;49.112;11.930;2022-10-01T09:46:03;11.50;99.90
27801;DHT22;15181;49.112;11.930;2022-10-01T09:48:35;11.50;99.90
27801;DHT22;15181;49.112;11.930;2022-10-01T09:51:09;11.60;99.90
27801;DHT22;15181;49.112;11.930;2022-10-01T09:53:41;11.70;99.90
27801;DHT22;15181;49.112;11.930;2022-10-01T09:56:14;11.70;99.90
27801;DHT22;15181;49.112;11.930;2022-10-01T09:58:46;11.80;99.90
27801;DHT22;15181;49.112;11.930;2022-10-01T10:01:21;11.80;99.90
27801;DHT22;15181;49.112;11.930;2022-10-01T10:03:52;11.80;99.90
27801;DHT22;15181;49.112;11.930;2022-10-01T10:06:23;11.80;99.90
27801;DHT22;15181;49.112;11.930;2022-10-01T10:08:53;11.80;99.90
27801;DHT22;15181;49.112;11.930;2022-10-01T10:11:23;11.80;99.90
27801;DHT22;15181;49.112;11.930;2022-10-01T10:13:52;11.70;99.90
27801;DHT22;15181;49.112;11.930;2022-10-01T10:16:24;11.70;99.90
27801;DHT22;15181;49.112;11.930;2022-10-01T10:18:54;11.70;99.90
27801;DHT22;15181;49.112;11.930;2022-10-01T10:21:26;11.60;99.90
27801;DHT22;15181;49.112;11.930;2022-10-01T10:23:57;11.60;99.90
27801;DHT22;15181;49.112;11.930;2022-10-01T10:26:29;11.50;99.90
27801;DHT22;15181;49.112;11.930;2022-10-01T10:28:56;11.50;99.90
27801;DHT22;15181;49.112;11.930;2022-10-01T10:31:25;11.40;99.90
27801;DHT22;15181;49.112;11.930;2022-10-01T10:33:56;11.40;99.90
27801;DHT22;15181;49.112;11.930;2022-10-01T10:36:28;11.40;99.90
27801;DHT22;15181;49.112;11.930;2022-10-01T10:38:57;11.40;99.90
27801;DHT22;15181;49.112;11.930;2022-10-01T10:41:26;11.40;99.90
27801;DHT22;15181;49.112;11.930;2022-10-01T10:43:57;11.40;99.90
27801;DHT22;15181;49.112;11.930;2022-10-01T10:46:28;11.30;99.90
27801;DHT22;15181;49.112;11.930;2022-10-01T10:49:10;11.30;99.90
27801;DHT22;15181;49.112;11.930;2022-10-01T10:51:46;11.30;99.90
27801;DHT22;15181;49.112;11.930;2022-10-01T10:54:20;11.30;99.90
27801;DHT22;15181;49.112;11.930;2022-10-01T10:56:55;11.30;99.90
27801;DHT22;15181;49.112;11.930;2022-10-01T10:59:24;11.30;99.90
27801;DHT22;15181;49.112;11.930;2022-10-01T11:01:51;11.30;99.90
27801;DHT22;15181;49.112;11.930;2022-10-01T11:04:27;11.30;99.90
27801;DHT22;15181;49.112;11.930;2022-10-01T11:06:58;11.20;99.90
27801;DHT22;15181;49.112;11.930;2022-10-01T11:09:31;11.20;99.90
27801;DHT22;15181;49.112;11.930;2022-10-01T11:12:10;11.10;99.90
27801;DHT22;15181;49.112;11.930;2022-10-01T11:14:52;11.20;99.90
27801;DHT22;15181;49.112;11.930;2022-10-01T11:17:32;11.10;99.90
27801;DHT22;15181;49.112;11.930;2022-10-01T11:20:20;11.10;99.90
27801;DHT22;15181;49.112;11.930;2022-10-01T11:23:05;11.10;99.90
27801;DHT22;15181;49.112;11.930;2022-10-01T11:25:44;11.00;99.90
27801;DHT22;15181;49.112;11.930;2022-10-01T11:28:24;11.00;99.90
27801;DHT22;15181;49.112;11.930;2022-10-01T11:30:58;11.00;99.90
27801;DHT22;15181;49.112;11.930;2022-10-01T11:33:36;11.00;99.90
27801;DHT22;15181;49.112;11.930;2022-10-01T11:36:15;11.00;99.90
27801;DHT22;15181;49.112;11.930;2022-10-01T11:38:52;11.10;99.90
27801;DHT22;15181;49.112;11.930;2022-10-01T11:41:26;11.10;99.90
27801;DHT22;15181;49.112;11.930;2022-10-01T11:43:56;11.10;99.90
27801;DHT22;15181;49.112;11.930;2022-10-01T11:46:33;11.00;99.90
27801;DHT22;15181;49.112;11.930;2022-10-01T11:49:17;11.00;99.90
27801;DHT22;15181;49.112;11.930;2022-10-01T11:51:48;11.00;99.90
27801;DHT22;15181;49.112;11.930;2022-10-01T11:54:21;11.00;99.90
27801;DHT22;15181;49.112;11.930;2022-10-01T11:56:53;11.10;99.90
27801;DHT22;15181;49.112;11.930;2022-10-01T11:59:42;11.10;99.90
27801;DHT22;15181;49.112;11.930;2022-10-01T12:02:14;11.10;99.90
27801;DHT22;15181;49.112;11.930;2022-10-01T12:04:48;11.10;99.90
27801;DHT22;15181;49.112;11.930;2022-10-01T12:07:20;11.10;99.90
27801;DHT22;15181;49.112;11.930;2022-10-01T12:09:57;11.20;99.90
27801;DHT22;15181;49.112;11.930;2022-10-01T12:12:30;11.20;99.90
27801;DHT22;15181;49.112;11.930;2022-10-01T12:15:04;11.20;99.90
27801;DHT22;15181;49.112;11.930;2022-10-01T12:17:40;11.20;99.90
27801;DHT22;15181;49.112;11.930;2022-10-01T12:20:17;11.20;99.90
27801;DHT22;15181;49.112;11.930;2022-10-01T12:22:46;11.20;99.90
27801;DHT22;15181;49.112;11.930;2022-10-01T12:25:17;11.30;99.90
27801;DHT22;15181;49.112;11.930;2022-10-01T12:27:54;11.30;99.90
27801;DHT22;15181;49.112;11.930;2022-10-01T12:30:27;11.30;99.90
27801;DHT22;15181;49.112;11.930;2022-10-01T12:33:11;11.30;99.90
27801;DHT22;15181;49.112;11.930;2022-10-01T12:35:51;11.30;99.90
27801;DHT22;15181;49.112;11.930;2022-10-01T12:38:30;11.30;99.90
27801;DHT22;15181;49.112;11.930;2022-10-01T12:41:09;11.30;99.90
27801;DHT22;15181;49.112;11.930;2022-10-01T12:43:58;11.40;99.90
27801;DHT22;15181;49.112;11.930;2022-10-01T12:46:35;11.40;99.90
27801;DHT22;15181;49.112;11.930;2022-10-01T12:49:13;11.40;99.90
27801;DHT22;15181;49.112;11.930;2022-10-01T12:51:48;11.40;99.90
27801;DHT22;15181;49.112;11.930;2022-10-01T12:54:34;11.50;99.90
27801;DHT22;15181;49.112;11.930;2022-10-01T12:57:13;11.60;99.90
27801;DHT22;15181;49.112;11.930;2022-10-01T12:59:58;11.70;99.90
27801;DHT22;15181;49.112;11.930;2022-10-01T13:02:43;11.70;99.90
27801;DHT22;15181;49.112;11.930;2022-10-01T13:05:22;11.80;99.90
27801;DHT22;15181;49.112;11.930;2022-10-01T13:08:05;11.80;99.90
27801;DHT22;15181;49.112;11.930;2022-10-01T13:10:46;11.90;99.90
27801;DHT22;15181;49.112;11.930;2022-10-01T13:13:17;11.90;99.90
27801;DHT22;15181;49.112;11.930;2022-10-01T13:15:48;12.00;99.90
27801;DHT22;15181;49.112;11.930;2022-10-01T13:18:28;12.00;99.90
27801;DHT22;15181;49.112;11.930;2022-10-01T13:21:05;12.20;99.90
27801;DHT22;15181;49.112;11.930;2022-10-01T13:23:39;12.30;99.90
27801;DHT22;15181;49.112;11.930;2022-10-01T13:26:09;12.30;99.90
27801;DHT22;15181;49.112;11.930;2022-10-01T13:28:57;12.30;99.90
27801;DHT22;15181;49.112;11.930;2022-10-01T13:31:36;12.30;99.90
27801;DHT22;15181;49.112;11.930;2022-10-01T13:34:23;12.30;99.90
27801;DHT22;15181;49.112;11.930;2022-10-01T13:36:50;12.30;99.90
27801;DHT22;15181;49.112;11.930;2022-10-01T13:39:21;12.20;99.90
27801;DHT22;15181;49.112;11.930;2022-10-01T13:41:50;12.30;99.90
27801;DHT22;15181;49.112;11.930;2022-10-01T13:44:22;12.40;99.90
27801;DHT22;15181;49.112;11.930;2022-10-01T13:46:54;12.40;99.90
27801;DHT22;15181;49.112;11.930;2022-10-01T13:49:24;12.50;99.90
27801;DHT22;15181;49.112;11.930;2022-10-01T13:51:52;12.60;99.90
27801;DHT22;15181;49.112;11.930;2022-10-01T13:54:23;12.50;99.90
27801;DHT22;15181;49.112;11.930;2022-10-01T13:56:52;12.50;99.90
27801;DHT22;15181;49.112;11.930;2022-10-01T13:59:31;12.50;99.90
27801;DHT22;15181;49.112;11.930;2022-10-01T14:01:58;12.60;99.90
27801;DHT22;15181;49.112;11.930;2022-10-01T14:04:33;12.60;99.90
27801;DHT22;15181;49.112;11.930;2022-10-01T14:07:09;12.60;99.90
27801;DHT22;15181;49.112;11.930;2022-10-01T14:09:42;12.60;99.90
27801;DHT22;15181;49.112;11.930;2022-10-01T14:12:15;12.50;99.90
27801;DHT22;15181;49.112;11.930;2022-10-01T14:15:13;12.40;99.90
27801;DHT22;15181;49.112;11.930;2022-10-01T14:18:00;12.40;99.90
27801;DHT22;15181;49.112;11.930;2022-10-01T14:20:33;12.40;99.90
27801;DHT22;15181;49.112;11.930;2022-10-01T14:23:07;12.30;99.90
27801;DHT22;15181;49.112;11.930;2022-10-01T14:25:41;12.30;99.90
27801;DHT22;15181;49.112;11.930;2022-10-01T14:28:43;12.30;99.90
27801;DHT22;15181;49.112;11.930;2022-10-01T14:31:20;12.20;99.90
27801;DHT22;15181;49.112;11.930;2022-10-01T14:34:14;12.20;99.90
27801;DHT22;15181;49.112;11.930;2022-10-01T14:36:46;12.20;99.90
27801;DHT22;15181;49.112;11.930;2022-10-01T14:39:15;12.10;99.90
27801;DHT22;15181;49.112;11.930;2022-10-01T14:41:43;12.00;99.90
27801;DHT22;15181;49.112;11.930;2022-10-01T14:44:23;12.00;99.90
27801;DHT22;15181;49.112;11.930;2022-10-01T14:46:53;12.00;99.90
27801;DHT22;15181;49.112;11.930;2022-10-01T14:49:23;12.00;99.90
27801;DHT22;15181;49.112;11.930;2022-10-01T14:51:53;12.00;99.90
27801;DHT22;15181;49.112;11.930;2022-10-01T14:54:21;12.00;99.90
27801;DHT22;15181;49.112;11.930;2022-10-01T14:56:48;11.90;99.90
27801;DHT22;15181;49.112;11.930;2022-10-01T14:59:21;12.00;99.90
27801;DHT22;15181;49.112;11.930;2022-10-01T15:01:56;12.00;99.90
27801;DHT22;15181;49.112;11.930;2022-10-01T15:04:23;12.00;99.90
27801;DHT22;15181;49.112;11.930;2022-10-01T15:06:50;12.00;99.90
27801;DHT22;15181;49.112;11.930;2022-10-01T15:09:17;12.00;99.90
27801;DHT22;15181;49.112;11.930;2022-10-01T15:11:46;12.00;99.90
27801;DHT22;15181;49.112;11.930;2022-10-01T15:14:16;12.00;99.90
27801;DHT22;15181;49.112;11.930;2022-10-01T15:16:44;12.00;99.90
27801;DHT22;15181;49.112;11.930;2022-10-01T15:19:14;11.90;99.90
27801;DHT22;15181;49.112;11.930;2022-10-01T15:21:47;11.90;99.90
27801;DHT22;15181;49.112;11.930;2022-10-01T15:24:19;11.90;99.90
27801;DHT22;15181;49.112;11.930;2022-10-01T15:26:48;12.00;99.90
27801;DHT22;15181;49.112;11.930;2022-10-01T15:29:16;12.00;99.90
27801;DHT22;15181;49.112;11.930;2022-10-01T15:31:45;12.00;99.90
27801;DHT22;15181;49.112;11.930;2022-10-01T15:34:15;12.00;99.90
27801;DHT22;15181;49.112;11.930;2022-10-01T15:36:43;12.00;99.90
27801;DHT22;15181;49.112;11.930;2022-10-01T15:39:27;11.90;99.90
27801;DHT22;15181;49.112;11.930;2022-10-01T15:41:56;12.00;99.90
27801;DHT22;15181;49.112;11.930;2022-10-01T15:44:47;12.00;99.90
27801;DHT22;15181;49.112;11.930;2022-10-01T15:47:24;12.00;99.90